sensor_id;sensor_type;location;lat;lon;timestamp;P1;durP1;ratioP1;P2;durP2;ratioP2
13083;SDS011;6608;48.790;9.198;2023-09-30T00:01:05;144.60;;;64.20;;
13083;SDS011;6608;48.790;9.198;2023-09-30T00:03:34;146.67;;;64.90;;
13083;SDS011;6608;48.790;9.198;2023-09-30T00:06:00;145.50;;;64.93;;
13083;SDS011;6608;48.790;9.198;2023-09-30T00:08:27;146.17;;;64.70;;
13083;SDS011;6608;48.790;9.198;2023-09-30T00:10:53;145.27;;;64.43;;
13083;SDS011;6608;48.790;9.198;2023-09-30T00:13:20;146.70;;;65.07;;
13083;SDS011;6608;48.790;9.198;2023-09-30T00:15:46;146.07;;;64.50;;
13083;SDS011;6608;48.790;9.198;2023-09-30T00:18:14;145.03;;;64.27;;
13083;SDS011;6608;48.790;9.198;2023-09-30T00:20:41;145.70;;;64.90;;
13083;SDS011;6608;48.790;9.198;2023-09-30T00:23:07;144.27;;;63.70;;
13083;SDS011;6608;48.790;9.198;2023-09-30T00:25:34;143.57;;;63.87;;
13083;SDS011;6608;48.790;9.198;2023-09-30T00:28:00;146.67;;;65.23;;
13083;SDS011;6608;48.790;9.198;2023-09-30T00:30:26;142.73;;;63.97;;
13083;SDS011;6608;48.790;9.198;2023-09-30T00:32:53;145.97;;;65.53;;
13083;SDS011;6608;48.790;9.198;2023-09-30T00:35:21;143.93;;;64.30;;
13083;SDS011;6608;48.790;9.198;2023-09-30T00:37:47;144.13;;;64.27;;
13083;SDS011;6608;48.790;9.198;2023-09-30T00:40:14;145.40;;;64.40;;
13083;SDS011;6608;48.790;9.198;2023-09-30T00:42:41;145.20;;;63.47;;
13083;SDS011;6608;48.790;9.198;2023-09-30T00:45:07;143.07;;;63.83;;
13083;SDS011;6608;48.790;9.198;2023-09-30T00:47:35;142.93;;;63.33;;
13083;SDS011;6608;48.790;9.198;2023-09-30T00:50:01;142.43;;;63.30;;
13083;SDS011;6608;48.790;9.198;2023-09-30T00:52:30;142.90;;;63.53;;
13083;SDS011;6608;48.790;9.198;2023-09-30T00:54:58;142.37;;;63.53;;
13083;SDS011;6608;48.790;9.198;2023-09-30T00:57:24;144.33;;;63.77;;
13083;SDS011;6608;48.790;9.198;2023-09-30T00:59:53;143.40;;;63.30;;
13083;SDS011;6608;48.790;9.198;2023-09-30T01:02:19;143.60;;;63.37;;
13083;SDS011;6608;48.790;9.198;2023-09-30T01:04:46;143.60;;;63.40;;
13083;SDS011;6608;48.790;9.198;2023-09-30T01:07:13;142.37;;;63.33;;
13083;SDS011;6608;48.790;9.198;2023-09-30T01:09:41;143.57;;;64.47;;
13083;SDS011;6608;48.790;9.198;2023-09-30T01:12:07;142.30;;;63.17;;
13083;SDS011;6608;48.790;9.198;2023-09-30T01:14:34;142.20;;;63.80;;
13083;SDS011;6608;48.790;9.198;2023-09-30T01:17:02;143.03;;;62.83;;
13083;SDS011;6608;48.790;9.198;2023-09-30T01:19:29;143.17;;;63.00;;
13083;SDS011;6608;48.790;9.198;2023-09-30T01:21:57;141.57;;;63.63;;
13083;SDS011;6608;48.790;9.198;2023-09-30T01:24:24;141.67;;;63.47;;
13083;SDS011;6608;48.790;9.198;2023-09-30T01:26:51;141.60;;;63.27;;
13083;SDS011;6608;48.790;9.198;2023-09-30T01:29:18;143.20;;;62.90;;
13083;SDS011;6608;48.790;9.198;2023-09-30T01:31:44;142.73;;;63.60;;
13083;SDS011;6608;48.790;9.198;2023-09-30T01:34:12;142.17;;;63.53;;
13083;SDS011;6608;48.790;9.198;2023-09-30T01:36:39;143.40;;;63.40;;
13083;SDS011;6608;48.790;9.198;2023-09-30T01:39:07;143.80;;;64.07;;
13083;SDS011;6608;48.790;9.198;2023-09-30T01:41:35;144.70;;;64.67;;
13083;SDS011;6608;48.790;9.198;2023-09-30T01:44:02;144.90;;;63.37;;
13083;SDS011;6608;48.790;9.198;2023-09-30T01:46:28;145.73;;;64.73;;
13083;SDS011;6608;48.790;9.198;2023-09-30T01:48:54;141.53;;;63.00;;
13083;SDS011;6608;48.790;9.198;2023-09-30T01:51:21;142.07;;;63.37;;
13083;SDS011;6608;48.790;9.198;2023-09-30T01:53:48;144.20;;;63.37;;
13083;SDS011;6608;48.790;9.198;2023-09-30T01:56:16;142.80;;;63.37;;
13083;SDS011;6608;48.790;9.198;2023-09-30T01:58:43;141.87;;;63.23;;
13083;SDS011;6608;48.790;9.198;2023-09-30T02:01:09;142.20;;;63.07;;
13083;SDS011;6608;48.790;9.198;2023-09-30T02:03:36;142.93;;;63.87;;
13083;SDS011;6608;48.790;9.198;2023-09-30T02:06:03;142.93;;;63.13;;
13083;SDS011;6608;48.790;9.198;2023-09-30T02:08:29;143.23;;;64.20;;
13083;SDS011;6608;48.790;9.198;2023-09-30T02:10:56;144.40;;;63.03;;
13083;SDS011;6608;48.790;9.198;2023-09-30T02:13:24;145.10;;;63.80;;
13083;SDS011;6608;48.790;9.198;2023-09-30T02:15:51;141.07;;;63.23;;
13083;SDS011;6608;48.790;9.198;2023-09-30T02:18:20;142.60;;;62.83;;
13083;SDS011;6608;48.790;9.198;2023-09-30T02:20:46;142.83;;;63.67;;
13083;SDS011;6608;48.790;9.198;2023-09-30T02:23:13;142.63;;;63.50;;
13083;SDS011;6608;48.790;9.198;2023-09-30T02:25:42;141.10;;;63.20;;
13083;SDS011;6608;48.790;9.198;2023-09-30T02:28:08;142.50;;;62.97;;
13083;SDS011;6608;48.790;9.198;2023-09-30T02:30:36;143.53;;;63.20;;
13083;SDS011;6608;48.790;9.198;2023-09-30T02:33:03;141.60;;;63.23;;
13083;SDS011;6608;48.790;9.198;2023-09-30T02:35:30;141.90;;;63.33;;
13083;SDS011;6608;48.790;9.198;2023-09-30T02:37:56;141.27;;;63.10;;
13083;SDS011;6608;48.790;9.198;2023-09-30T02:40:24;142.77;;;63.70;;
13083;SDS011;6608;48.790;9.198;2023-09-30T02:42:50;142.10;;;63.43;;
13083;SDS011;6608;48.790;9.198;2023-09-30T02:45:17;142.10;;;63.37;;
13083;SDS011;6608;48.790;9.198;2023-09-30T02:47:46;143.03;;;64.07;;
13083;SDS011;6608;48.790;9.198;2023-09-30T02:50:12;141.83;;;63.80;;
13083;SDS011;6608;48.790;9.198;2023-09-30T02:52:39;142.40;;;63.67;;
13083;SDS011;6608;48.790;9.198;2023-09-30T02:55:06;147.30;;;64.13;;
13083;SDS011;6608;48.790;9.198;2023-09-30T02:57:33;143.50;;;64.37;;
13083;SDS011;6608;48.790;9.198;2023-09-30T03:00:00;141.83;;;63.80;;
13083;SDS011;6608;48.790;9.198;2023-09-30T03:02:37;145.57;;;64.00;;
13083;SDS011;6608;48.790;9.198;2023-09-30T03:05:05;142.97;;;63.77;;
13083;SDS011;6608;48.790;9.198;2023-09-30T03:07:32;142.70;;;63.43;;
13083;SDS011;6608;48.790;9.198;2023-09-30T03:09:58;142.73;;;63.90;;
13083;SDS011;6608;48.790;9.198;2023-09-30T03:12:29;142.23;;;63.20;;
13083;SDS011;6608;48.790;9.198;2023-09-30T03:14:56;142.37;;;63.53;;
13083;SDS011;6608;48.790;9.198;2023-09-30T03:17:23;144.67;;;63.93;;
13083;SDS011;6608;48.790;9.198;2023-09-30T03:19:50;142.77;;;63.17;;
13083;SDS011;6608;48.790;9.198;2023-09-30T03:22:18;141.67;;;63.10;;
13083;SDS011;6608;48.790;9.198;2023-09-30T03:24:45;143.33;;;63.97;;
13083;SDS011;6608;48.790;9.198;2023-09-30T03:27:12;144.90;;;64.23;;
13083;SDS011;6608;48.790;9.198;2023-09-30T03:29:38;144.83;;;62.80;;
13083;SDS011;6608;48.790;9.198;2023-09-30T03:32:06;146.23;;;64.07;;
13083;SDS011;6608;48.790;9.198;2023-09-30T03:34:33;147.07;;;64.23;;
13083;SDS011;6608;48.790;9.198;2023-09-30T03:37:01;146.03;;;63.83;;
13083;SDS011;6608;48.790;9.198;2023-09-30T03:39:32;143.10;;;63.33;;
13083;SDS011;6608;48.790;9.198;2023-09-30T03:41:59;142.20;;;62.70;;
13083;SDS011;6608;48.790;9.198;2023-09-30T03:44:26;142.97;;;63.77;;
13083;SDS011;6608;48.790;9.198;2023-09-30T03:46:53;143.47;;;63.53;;
13083;SDS011;6608;48.790;9.198;2023-09-30T03:49:19;142.10;;;63.87;;
13083;SDS011;6608;48.790;9.198;2023-09-30T03:51:46;141.77;;;63.40;;
13083;SDS011;6608;48.790;9.198;2023-09-30T03:54:15;144.60;;;64.27;;
13083;SDS011;6608;48.790;9.198;2023-09-30T03:56:44;146.40;;;64.13;;
13083;SDS011;6608;48.790;9.198;2023-09-30T03:59:10;141.63;;;63.77;;
13083;SDS011;6608;48.790;9.198;2023-09-30T04:01:37;143.23;;;63.20;;
13083;SDS011;6608;48.790;9.198;2023-09-30T04:04:05;144.07;;;65.43;;
13083;SDS011;6608;48.790;9.198;2023-09-30T04:06:32;142.87;;;63.47;;
13083;SDS011;6608;48.790;9.198;2023-09-30T04:08:58;145.10;;;65.00;;
13083;SDS011;6608;48.790;9.198;2023-09-30T04:11:26;142.43;;;63.77;;
13083;SDS011;6608;48.790;9.198;2023-09-30T04:13:54;141.07;;;63.17;;
13083;SDS011;6608;48.790;9.198;2023-09-30T04:16:21;145.63;;;64.60;;
13083;SDS011;6608;48.790;9.198;2023-09-30T04:18:48;141.87;;;64.00;;
13083;SDS011;6608;48.790;9.198;2023-09-30T04:21:15;142.07;;;64.27;;
13083;SDS011;6608;48.790;9.198;2023-09-30T04:23:41;143.47;;;63.37;;
13083;SDS011;6608;48.790;9.198;2023-09-30T04:26:08;147.87;;;63.70;;
13083;SDS011;6608;48.790;9.198;2023-09-30T04:28:35;142.07;;;63.47;;
13083;SDS011;6608;48.790;9.198;2023-09-30T04:31:02;143.17;;;63.30;;
13083;SDS011;6608;48.790;9.198;2023-09-30T04:33:30;141.73;;;63.00;;
13083;SDS011;6608;48.790;9.198;2023-09-30T04:35:56;144.50;;;63.43;;
13083;SDS011;6608;48.790;9.198;2023-09-30T04:38:23;142.10;;;63.67;;
13083;SDS011;6608;48.790;9.198;2023-09-30T04:40:56;140.60;;;62.77;;
13083;SDS011;6608;48.790;9.198;2023-09-30T04:43:23;141.07;;;63.40;;
13083;SDS011;6608;48.790;9.198;2023-09-30T04:45:49;141.63;;;63.43;;
13083;SDS011;6608;48.790;9.198;2023-09-30T04:48:19;144.93;;;63.37;;
13083;SDS011;6608;48.790;9.198;2023-09-30T04:50:45;142.07;;;63.37;;
13083;SDS011;6608;48.790;9.198;2023-09-30T04:53:11;142.37;;;63.23;;
13083;SDS011;6608;48.790;9.198;2023-09-30T04:55:38;143.77;;;63.70;;
13083;SDS011;6608;48.790;9.198;2023-09-30T04:58:04;142.57;;;63.47;;
13083;SDS011;6608;48.790;9.198;2023-09-30T05:00:31;142.83;;;63.13;;
13083;SDS011;6608;48.790;9.198;2023-09-30T05:02:58;141.07;;;63.23;;
13083;SDS011;6608;48.790;9.198;2023-09-30T05:05:26;142.30;;;63.07;;
13083;SDS011;6608;48.790;9.198;2023-09-30T05:07:53;141.90;;;64.07;;
13083;SDS011;6608;48.790;9.198;2023-09-30T05:10:20;144.20;;;63.17;;
13083;SDS011;6608;48.790;9.198;2023-09-30T05:12:46;143.63;;;63.57;;
13083;SDS011;6608;48.790;9.198;2023-09-30T05:15:13;142.47;;;63.40;;
13083;SDS011;6608;48.790;9.198;2023-09-30T05:17:40;142.30;;;63.13;;
13083;SDS011;6608;48.790;9.198;2023-09-30T05:20:07;141.60;;;63.10;;
13083;SDS011;6608;48.790;9.198;2023-09-30T05:22:35;145.70;;;63.20;;
13083;SDS011;6608;48.790;9.198;2023-09-30T05:25:01;144.60;;;64.60;;
13083;SDS011;6608;48.790;9.198;2023-09-30T05:27:28;139.80;;;63.03;;
13083;SDS011;6608;48.790;9.198;2023-09-30T05:29:54;142.07;;;63.53;;
13083;SDS011;6608;48.790;9.198;2023-09-30T05:32:21;142.53;;;63.30;;
13083;SDS011;6608;48.790;9.198;2023-09-30T05:34:47;144.17;;;63.60;;
13083;SDS011;6608;48.790;9.198;2023-09-30T05:37:14;140.93;;;63.77;;
13083;SDS011;6608;48.790;9.198;2023-09-30T05:39:41;144.90;;;64.37;;
13083;SDS011;6608;48.790;9.198;2023-09-30T05:42:09;143.73;;;63.53;;
13083;SDS011;6608;48.790;9.198;2023-09-30T05:44:36;143.37;;;64.00;;
13083;SDS011;6608;48.790;9.198;2023-09-30T05:47:03;141.70;;;63.13;;
13083;SDS011;6608;48.790;9.198;2023-09-30T05:49:30;142.80;;;64.67;;
13083;SDS011;6608;48.790;9.198;2023-09-30T05:51:56;145.67;;;63.37;;
13083;SDS011;6608;48.790;9.198;2023-09-30T05:54:24;142.57;;;63.60;;
13083;SDS011;6608;48.790;9.198;2023-09-30T05:56:52;141.20;;;63.07;;
13083;SDS011;6608;48.790;9.198;2023-09-30T05:59:19;142.47;;;64.23;;
13083;SDS011;6608;48.790;9.198;2023-09-30T06:01:45;144.73;;;63.57;;
13083;SDS011;6608;48.790;9.198;2023-09-30T06:04:12;142.77;;;63.30;;
13083;SDS011;6608;48.790;9.198;2023-09-30T06:06:38;143.20;;;63.23;;
13083;SDS011;6608;48.790;9.198;2023-09-30T06:09:05;141.37;;;63.50;;
13083;SDS011;6608;48.790;9.198;2023-09-30T06:11:33;142.23;;;63.30;;
13083;SDS011;6608;48.790;9.198;2023-09-30T06:14:02;140.90;;;63.50;;
13083;SDS011;6608;48.790;9.198;2023-09-30T06:16:31;142.17;;;63.43;;
13083;SDS011;6608;48.790;9.198;2023-09-30T06:18:57;142.90;;;63.23;;
13083;SDS011;6608;48.790;9.198;2023-09-30T06:21:24;145.57;;;63.53;;
13083;SDS011;6608;48.790;9.198;2023-09-30T06:23:54;144.07;;;63.93;;
13083;SDS011;6608;48.790;9.198;2023-09-30T06:26:32;143.40;;;63.50;;
13083;SDS011;6608;48.790;9.198;2023-09-30T06:28:58;141.90;;;63.10;;
13083;SDS011;6608;48.790;9.198;2023-09-30T06:31:26;142.33;;;62.93;;
13083;SDS011;6608;48.790;9.198;2023-09-30T06:33:53;142.37;;;63.20;;
13083;SDS011;6608;48.790;9.198;2023-09-30T06:36:23;143.20;;;64.53;;
13083;SDS011;6608;48.790;9.198;2023-09-30T06:38:49;144.80;;;64.60;;
13083;SDS011;6608;48.790;9.198;2023-09-30T06:41:17;143.93;;;63.80;;
13083;SDS011;6608;48.790;9.198;2023-09-30T06:43:44;143.90;;;63.87;;
13083;SDS011;6608;48.790;9.198;2023-09-30T06:46:11;144.43;;;63.53;;
13083;SDS011;6608;48.790;9.198;2023-09-30T06:48:39;142.20;;;63.47;;
13083;SDS011;6608;48.790;9.198;2023-09-30T06:51:06;143.33;;;64.20;;
13083;SDS011;6608;48.790;9.198;2023-09-30T06:53:32;145.63;;;64.00;;
13083;SDS011;6608;48.790;9.198;2023-09-30T06:55:59;147.60;;;64.17;;
13083;SDS011;6608;48.790;9.198;2023-09-30T06:58:27;145.10;;;64.70;;
13083;SDS011;6608;48.790;9.198;2023-09-30T07:00:53;143.40;;;63.57;;
13083;SDS011;6608;48.790;9.198;2023-09-30T07:03:19;142.47;;;63.63;;
13083;SDS011;6608;48.790;9.198;2023-09-30T07:05:47;147.10;;;64.37;;
13083;SDS011;6608;48.790;9.198;2023-09-30T07:08:16;144.60;;;64.00;;
13083;SDS011;6608;48.790;9.198;2023-09-30T07:10:43;143.00;;;64.57;;
13083;SDS011;6608;48.790;9.198;2023-09-30T07:13:11;142.07;;;64.53;;
13083;SDS011;6608;48.790;9.198;2023-09-30T07:15:37;145.77;;;64.60;;
13083;SDS011;6608;48.790;9.198;2023-09-30T07:18:03;146.43;;;64.83;;
13083;SDS011;6608;48.790;9.198;2023-09-30T07:20:30;145.63;;;64.50;;
13083;SDS011;6608;48.790;9.198;2023-09-30T07:22:59;145.23;;;63.80;;
13083;SDS011;6608;48.790;9.198;2023-09-30T07:25:25;142.67;;;64.07;;
13083;SDS011;6608;48.790;9.198;2023-09-30T07:27:52;144.33;;;64.83;;
13083;SDS011;6608;48.790;9.198;2023-09-30T07:30:18;145.50;;;65.20;;
13083;SDS011;6608;48.790;9.198;2023-09-30T07:32:45;142.47;;;63.50;;
13083;SDS011;6608;48.790;9.198;2023-09-30T07:35:12;147.73;;;64.93;;
13083;SDS011;6608;48.790;9.198;2023-09-30T07:37:39;146.63;;;64.20;;
13083;SDS011;6608;48.790;9.198;2023-09-30T07:40:08;143.77;;;65.63;;
13083;SDS011;6608;48.790;9.198;2023-09-30T07:42:35;143.17;;;63.97;;
13083;SDS011;6608;48.790;9.198;2023-09-30T07:45:01;144.90;;;65.53;;
13083;SDS011;6608;48.790;9.198;2023-09-30T07:47:28;143.67;;;64.47;;
13083;SDS011;6608;48.790;9.198;2023-09-30T07:49:55;146.47;;;65.13;;
13083;SDS011;6608;48.790;9.198;2023-09-30T07:52:22;143.37;;;64.77;;
13083;SDS011;6608;48.790;9.198;2023-09-30T07:54:48;146.87;;;64.50;;
13083;SDS011;6608;48.790;9.198;2023-09-30T07:57:16;146.47;;;65.37;;
13083;SDS011;6608;48.790;9.198;2023-09-30T07:59:42;144.60;;;65.47;;
13083;SDS011;6608;48.790;9.198;2023-09-30T08:02:09;144.73;;;65.17;;
13083;SDS011;6608;48.790;9.198;2023-09-30T08:04:35;147.17;;;65.27;;
13083;SDS011;6608;48.790;9.198;2023-09-30T08:07:02;146.73;;;65.40;;
13083;SDS011;6608;48.790;9.198;2023-09-30T08:09:28;150.57;;;65.53;;
13083;SDS011;6608;48.790;9.198;2023-09-30T08:11:55;146.90;;;65.73;;
13083;SDS011;6608;48.790;9.198;2023-09-30T08:14:23;148.47;;;65.93;;
13083;SDS011;6608;48.790;9.198;2023-09-30T08:16:50;145.13;;;65.90;;
13083;SDS011;6608;48.790;9.198;2023-09-30T08:19:16;149.33;;;65.47;;
13083;SDS011;6608;48.790;9.198;2023-09-30T08:21:43;147.73;;;65.90;;
13083;SDS011;6608;48.790;9.198;2023-09-30T08:24:10;154.33;;;67.47;;
13083;SDS011;6608;48.790;9.198;2023-09-30T08:26:36;150.13;;;66.87;;
13083;SDS011;6608;48.790;9.198;2023-09-30T08:29:03;151.83;;;67.13;;
13083;SDS011;6608;48.790;9.198;2023-09-30T08:31:31;152.50;;;67.53;;
13083;SDS011;6608;48.790;9.198;2023-09-30T08:33:58;151.07;;;67.73;;
13083;SDS011;6608;48.790;9.198;2023-09-30T08:36:24;151.83;;;67.87;;
13083;SDS011;6608;48.790;9.198;2023-09-30T08:38:51;152.47;;;67.67;;
13083;SDS011;6608;48.790;9.198;2023-09-30T08:41:27;154.80;;;68.93;;
13083;SDS011;6608;48.790;9.198;2023-09-30T08:43:57;151.37;;;68.37;;
13083;SDS011;6608;48.790;9.198;2023-09-30T08:46:25;149.90;;;69.30;;
13083;SDS011;6608;48.790;9.198;2023-09-30T08:48:53;150.67;;;68.70;;
13083;SDS011;6608;48.790;9.198;2023-09-30T08:51:21;150.00;;;68.33;;
13083;SDS011;6608;48.790;9.198;2023-09-30T08:53:47;154.17;;;69.13;;
13083;SDS011;6608;48.790;9.198;2023-09-30T08:56:14;152.43;;;69.67;;
13083;SDS011;6608;48.790;9.198;2023-09-30T08:58:42;150.30;;;70.20;;
13083;SDS011;6608;48.790;9.198;2023-09-30T09:01:09;154.37;;;70.23;;
13083;SDS011;6608;48.790;9.198;2023-09-30T09:03:36;152.93;;;71.33;;
13083;SDS011;6608;48.790;9.198;2023-09-30T09:06:05;147.20;;;69.03;;
13083;SDS011;6608;48.790;9.198;2023-09-30T09:08:32;150.57;;;70.37;;
13083;SDS011;6608;48.790;9.198;2023-09-30T09:10:59;152.93;;;70.30;;
13083;SDS011;6608;48.790;9.198;2023-09-30T09:13:26;150.93;;;70.67;;
13083;SDS011;6608;48.790;9.198;2023-09-30T09:16:05;147.63;;;70.05;;
13083;SDS011;6608;48.790;9.198;2023-09-30T09:18:32;152.20;;;71.07;;
13083;SDS011;6608;48.790;9.198;2023-09-30T09:21:10;151.10;;;71.70;;
13083;SDS011;6608;48.790;9.198;2023-09-30T09:23:40;150.60;;;71.53;;
13083;SDS011;6608;48.790;9.198;2023-09-30T09:26:06;150.93;;;70.85;;
13083;SDS011;6608;48.790;9.198;2023-09-30T09:28:33;152.07;;;72.10;;
13083;SDS011;6608;48.790;9.198;2023-09-30T09:31:00;153.00;;;72.38;;
13083;SDS011;6608;48.790;9.198;2023-09-30T09:33:33;152.00;;;72.25;;
13083;SDS011;6608;48.790;9.198;2023-09-30T09:36:00;151.32;;;72.28;;
13083;SDS011;6608;48.790;9.198;2023-09-30T09:38:28;149.00;;;71.50;;
13083;SDS011;6608;48.790;9.198;2023-09-30T09:41:09;149.05;;;72.53;;
13083;SDS011;6608;48.790;9.198;2023-09-30T09:43:36;148.48;;;72.00;;
13083;SDS011;6608;48.790;9.198;2023-09-30T09:46:02;151.40;;;72.57;;
13083;SDS011;6608;48.790;9.198;2023-09-30T09:48:31;151.18;;;72.47;;
13083;SDS011;6608;48.790;9.198;2023-09-30T09:50:57;150.50;;;72.43;;
13083;SDS011;6608;48.790;9.198;2023-09-30T09:53:25;149.95;;;72.68;;
13083;SDS011;6608;48.790;9.198;2023-09-30T09:55:53;153.73;;;73.10;;
13083;SDS011;6608;48.790;9.198;2023-09-30T09:58:21;147.80;;;71.93;;
13083;SDS011;6608;48.790;9.198;2023-09-30T10:00:49;148.90;;;72.15;;
13083;SDS011;6608;48.790;9.198;2023-09-30T10:03:16;148.95;;;72.03;;
13083;SDS011;6608;48.790;9.198;2023-09-30T10:05:43;149.20;;;72.63;;
13083;SDS011;6608;48.790;9.198;2023-09-30T10:08:11;149.52;;;72.07;;
13083;SDS011;6608;48.790;9.198;2023-09-30T10:10:38;150.98;;;72.75;;
13083;SDS011;6608;48.790;9.198;2023-09-30T10:13:06;149.32;;;71.30;;
13083;SDS011;6608;48.790;9.198;2023-09-30T10:15:39;148.95;;;72.20;;
13083;SDS011;6608;48.790;9.198;2023-09-30T10:18:08;146.38;;;71.63;;
13083;SDS011;6608;48.790;9.198;2023-09-30T10:20:36;148.82;;;71.60;;
13083;SDS011;6608;48.790;9.198;2023-09-30T10:23:19;151.82;;;72.68;;
13083;SDS011;6608;48.790;9.198;2023-09-30T10:25:46;154.07;;;72.20;;
13083;SDS011;6608;48.790;9.198;2023-09-30T10:28:33;154.27;;;72.38;;
13083;SDS011;6608;48.790;9.198;2023-09-30T10:31:15;155.13;;;71.97;;
13083;SDS011;6608;48.790;9.198;2023-09-30T10:36:42;154.83;;;72.33;;
13083;SDS011;6608;48.790;9.198;2023-09-30T10:39:10;156.53;;;72.00;;
13083;SDS011;6608;48.790;9.198;2023-09-30T10:41:50;150.13;;;70.20;;
13083;SDS011;6608;48.790;9.198;2023-09-30T10:44:33;152.37;;;70.60;;
13083;SDS011;6608;48.790;9.198;2023-09-30T10:47:00;155.60;;;71.23;;
13083;SDS011;6608;48.790;9.198;2023-09-30T10:49:30;153.27;;;69.83;;
13083;SDS011;6608;48.790;9.198;2023-09-30T10:51:58;155.00;;;69.47;;
13083;SDS011;6608;48.790;9.198;2023-09-30T10:54:26;153.30;;;68.37;;
13083;SDS011;6608;48.790;9.198;2023-09-30T10:56:53;151.57;;;68.07;;
13083;SDS011;6608;48.790;9.198;2023-09-30T10:59:20;149.80;;;68.30;;
13083;SDS011;6608;48.790;9.198;2023-09-30T11:01:50;152.17;;;68.53;;
13083;SDS011;6608;48.790;9.198;2023-09-30T11:04:16;152.17;;;69.53;;
13083;SDS011;6608;48.790;9.198;2023-09-30T11:06:45;151.47;;;68.70;;
13083;SDS011;6608;48.790;9.198;2023-09-30T11:09:14;156.97;;;69.53;;
13083;SDS011;6608;48.790;9.198;2023-09-30T11:11:42;152.33;;;70.30;;
13083;SDS011;6608;48.790;9.198;2023-09-30T11:14:16;152.10;;;69.60;;
13083;SDS011;6608;48.790;9.198;2023-09-30T11:16:43;151.60;;;69.80;;
13083;SDS011;6608;48.790;9.198;2023-09-30T11:19:11;151.27;;;70.53;;
13083;SDS011;6608;48.790;9.198;2023-09-30T11:21:38;151.83;;;70.47;;
13083;SDS011;6608;48.790;9.198;2023-09-30T11:24:05;151.73;;;70.27;;
13083;SDS011;6608;48.790;9.198;2023-09-30T11:26:32;152.33;;;70.43;;
13083;SDS011;6608;48.790;9.198;2023-09-30T11:29:04;152.60;;;71.17;;
13083;SDS011;6608;48.790;9.198;2023-09-30T11:31:31;152.57;;;71.13;;
13083;SDS011;6608;48.790;9.198;2023-09-30T11:33:59;151.93;;;71.60;;
13083;SDS011;6608;48.790;9.198;2023-09-30T11:36:30;150.87;;;70.87;;
13083;SDS011;6608;48.790;9.198;2023-09-30T11:38:56;152.82;;;71.97;;
13083;SDS011;6608;48.790;9.198;2023-09-30T11:41:31;154.88;;;71.75;;
13083;SDS011;6608;48.790;9.198;2023-09-30T11:43:58;156.93;;;71.43;;
13083;SDS011;6608;48.790;9.198;2023-09-30T11:46:26;152.80;;;72.07;;
13083;SDS011;6608;48.790;9.198;2023-09-30T11:48:56;153.05;;;71.63;;
13083;SDS011;6608;48.790;9.198;2023-09-30T11:51:24;155.47;;;71.97;;
13083;SDS011;6608;48.790;9.198;2023-09-30T11:53:53;155.73;;;71.70;;
13083;SDS011;6608;48.790;9.198;2023-09-30T11:56:20;154.53;;;71.67;;
13083;SDS011;6608;48.790;9.198;2023-09-30T11:58:47;153.57;;;71.30;;
13083;SDS011;6608;48.790;9.198;2023-09-30T12:01:13;152.57;;;71.40;;
13083;SDS011;6608;48.790;9.198;2023-09-30T12:03:41;152.23;;;71.50;;
13083;SDS011;6608;48.790;9.198;2023-09-30T12:06:07;153.67;;;72.90;;
13083;SDS011;6608;48.790;9.198;2023-09-30T12:08:38;153.83;;;71.70;;
13083;SDS011;6608;48.790;9.198;2023-09-30T12:11:06;152.17;;;70.70;;
13083;SDS011;6608;48.790;9.198;2023-09-30T12:13:32;152.97;;;70.60;;
13083;SDS011;6608;48.790;9.198;2023-09-30T12:15:59;162.23;;;71.23;;
13083;SDS011;6608;48.790;9.198;2023-09-30T12:18:26;154.93;;;71.07;;
13083;SDS011;6608;48.790;9.198;2023-09-30T12:20:52;152.80;;;70.87;;
13083;SDS011;6608;48.790;9.198;2023-09-30T12:23:19;153.27;;;70.40;;
13083;SDS011;6608;48.790;9.198;2023-09-30T12:25:45;150.10;;;70.03;;
13083;SDS011;6608;48.790;9.198;2023-09-30T12:28:13;152.67;;;70.27;;
13083;SDS011;6608;48.790;9.198;2023-09-30T12:30:40;154.83;;;71.23;;
13083;SDS011;6608;48.790;9.198;2023-09-30T12:33:07;152.37;;;70.37;;
13083;SDS011;6608;48.790;9.198;2023-09-30T12:35:33;155.07;;;71.37;;
13083;SDS011;6608;48.790;9.198;2023-09-30T12:38:00;154.03;;;69.90;;
13083;SDS011;6608;48.790;9.198;2023-09-30T12:40:27;151.77;;;69.07;;
13083;SDS011;6608;48.790;9.198;2023-09-30T12:42:54;153.83;;;69.53;;
13083;SDS011;6608;48.790;9.198;2023-09-30T12:45:22;154.27;;;69.17;;
13083;SDS011;6608;48.790;9.198;2023-09-30T12:47:48;151.80;;;69.70;;
13083;SDS011;6608;48.790;9.198;2023-09-30T12:50:17;154.60;;;70.90;;
13083;SDS011;6608;48.790;9.198;2023-09-30T12:52:43;155.20;;;70.33;;
13083;SDS011;6608;48.790;9.198;2023-09-30T12:55:10;151.97;;;71.17;;
13083;SDS011;6608;48.790;9.198;2023-09-30T12:57:36;152.97;;;69.80;;
13083;SDS011;6608;48.790;9.198;2023-09-30T13:00:03;152.10;;;70.20;;
13083;SDS011;6608;48.790;9.198;2023-09-30T13:02:31;153.87;;;70.90;;
13083;SDS011;6608;48.790;9.198;2023-09-30T13:04:58;152.53;;;71.30;;
13083;SDS011;6608;48.790;9.198;2023-09-30T13:07:24;152.23;;;70.57;;
13083;SDS011;6608;48.790;9.198;2023-09-30T13:09:51;151.37;;;69.90;;
13083;SDS011;6608;48.790;9.198;2023-09-30T13:12:17;151.40;;;70.23;;
13083;SDS011;6608;48.790;9.198;2023-09-30T13:14:44;155.10;;;70.87;;
13083;SDS011;6608;48.790;9.198;2023-09-30T13:17:10;151.83;;;70.17;;
13083;SDS011;6608;48.790;9.198;2023-09-30T13:19:40;153.33;;;70.03;;
13083;SDS011;6608;48.790;9.198;2023-09-30T13:22:07;152.60;;;69.97;;
13083;SDS011;6608;48.790;9.198;2023-09-30T13:24:34;153.73;;;70.17;;
13083;SDS011;6608;48.790;9.198;2023-09-30T13:27:04;152.30;;;70.10;;
13083;SDS011;6608;48.790;9.198;2023-09-30T13:29:31;152.73;;;70.50;;
13083;SDS011;6608;48.790;9.198;2023-09-30T13:31:57;152.60;;;70.30;;
13083;SDS011;6608;48.790;9.198;2023-09-30T13:34:24;151.80;;;70.27;;
13083;SDS011;6608;48.790;9.198;2023-09-30T13:36:52;152.30;;;69.37;;
13083;SDS011;6608;48.790;9.198;2023-09-30T13:39:18;152.53;;;70.40;;
13083;SDS011;6608;48.790;9.198;2023-09-30T13:41:46;151.60;;;70.13;;
13083;SDS011;6608;48.790;9.198;2023-09-30T13:44:13;154.63;;;70.37;;
13083;SDS011;6608;48.790;9.198;2023-09-30T13:46:39;154.53;;;70.37;;
13083;SDS011;6608;48.790;9.198;2023-09-30T13:49:07;154.97;;;70.20;;
13083;SDS011;6608;48.790;9.198;2023-09-30T13:51:33;157.93;;;70.00;;
13083;SDS011;6608;48.790;9.198;2023-09-30T13:54:01;153.47;;;70.03;;
13083;SDS011;6608;48.790;9.198;2023-09-30T13:56:29;151.73;;;69.90;;
13083;SDS011;6608;48.790;9.198;2023-09-30T13:58:56;152.60;;;69.23;;
13083;SDS011;6608;48.790;9.198;2023-09-30T14:01:22;155.73;;;69.57;;
13083;SDS011;6608;48.790;9.198;2023-09-30T14:03:49;153.70;;;69.10;;
13083;SDS011;6608;48.790;9.198;2023-09-30T14:06:20;154.83;;;69.23;;
13083;SDS011;6608;48.790;9.198;2023-09-30T14:08:46;154.07;;;69.67;;
13083;SDS011;6608;48.790;9.198;2023-09-30T14:11:14;158.70;;;70.73;;
13083;SDS011;6608;48.790;9.198;2023-09-30T14:13:41;153.33;;;69.20;;
13083;SDS011;6608;48.790;9.198;2023-09-30T14:16:07;150.63;;;69.43;;
13083;SDS011;6608;48.790;9.198;2023-09-30T14:18:34;152.87;;;69.60;;
13083;SDS011;6608;48.790;9.198;2023-09-30T14:21:01;157.00;;;71.03;;
13083;SDS011;6608;48.790;9.198;2023-09-30T14:23:28;153.40;;;69.40;;
13083;SDS011;6608;48.790;9.198;2023-09-30T14:25:55;152.00;;;69.13;;